sensor_id;sensor_type;location;lat;lon;timestamp;P1;durP1;ratioP1;P2;durP2;ratioP2
67904;SDS011;54709;43.614;1.576;2022-09-29T00:00:36;5.45;;;1.52;;
67904;SDS011;54709;43.614;1.576;2022-09-29T00:03:02;8.50;;;1.58;;
67904;SDS011;54709;43.614;1.576;2022-09-29T00:05:28;7.47;;;1.77;;
67904;SDS011;54709;43.614;1.576;2022-09-29T00:07:54;5.53;;;1.20;;
67904;SDS011;54709;43.614;1.576;2022-09-29T00:10:20;4.72;;;1.23;;
67904;SDS011;54709;43.614;1.576;2022-09-29T00:12:45;6.60;;;1.25;;
67904;SDS011;54709;43.614;1.576;2022-09-29T00:15:11;6.85;;;1.60;;
67904;SDS011;54709;43.614;1.576;2022-09-29T00:17:37;9.48;;;1.52;;
67904;SDS011;54709;43.614;1.576;2022-09-29T00:20:03;5.03;;;1.35;;
67904;SDS011;54709;43.614;1.576;2022-09-29T00:22:29;5.70;;;1.30;;
67904;SDS011;54709;43.614;1.576;2022-09-29T00:24:54;4.95;;;1.10;;
67904;SDS011;54709;43.614;1.576;2022-09-29T00:27:19;5.70;;;1.45;;
67904;SDS011;54709;43.614;1.576;2022-09-29T00:29:45;4.90;;;1.50;;
67904;SDS011;54709;43.614;1.576;2022-09-29T00:32:10;9.88;;;1.40;;
67904;SDS011;54709;43.614;1.576;2022-09-29T00:34:36;5.95;;;1.33;;
67904;SDS011;54709;43.614;1.576;2022-09-29T00:37:02;7.53;;;1.52;;
67904;SDS011;54709;43.614;1.576;2022-09-29T00:39:28;6.25;;;1.30;;
67904;SDS011;54709;43.614;1.576;2022-09-29T00:41:53;7.85;;;1.50;;
67904;SDS011;54709;43.614;1.576;2022-09-29T00:46:45;5.35;;;1.35;;
67904;SDS011;54709;43.614;1.576;2022-09-29T00:51:39;5.07;;;1.52;;
67904;SDS011;54709;43.614;1.576;2022-09-29T00:54:07;7.15;;;1.48;;
67904;SDS011;54709;43.614;1.576;2022-09-29T00:56:33;6.10;;;1.48;;
67904;SDS011;54709;43.614;1.576;2022-09-29T00:59:00;7.47;;;1.70;;
67904;SDS011;54709;43.614;1.576;2022-09-29T01:01:28;8.73;;;1.42;;
67904;SDS011;54709;43.614;1.576;2022-09-29T01:03:56;4.75;;;1.38;;
67904;SDS011;54709;43.614;1.576;2022-09-29T01:06:27;7.72;;;1.50;;
67904;SDS011;54709;43.614;1.576;2022-09-29T01:09:01;8.00;;;1.53;;
67904;SDS011;54709;43.614;1.576;2022-09-29T01:11:28;4.53;;;1.10;;
67904;SDS011;54709;43.614;1.576;2022-09-29T01:13:54;8.27;;;1.30;;
67904;SDS011;54709;43.614;1.576;2022-09-29T01:16:22;4.43;;;1.02;;
67904;SDS011;54709;43.614;1.576;2022-09-29T01:18:48;6.25;;;1.38;;
67904;SDS011;54709;43.614;1.576;2022-09-29T01:21:21;4.63;;;1.55;;
67904;SDS011;54709;43.614;1.576;2022-09-29T01:37:13;6.60;;;1.00;;
67904;SDS011;54709;43.614;1.576;2022-09-29T01:42:28;3.90;;;0.80;;
67904;SDS011;54709;43.614;1.576;2022-09-29T01:45:05;1.95;;;0.77;;
67904;SDS011;54709;43.614;1.576;2022-09-29T01:47:41;6.90;;;1.15;;
67904;SDS011;54709;43.614;1.576;2022-09-29T01:50:17;4.40;;;1.05;;
67904;SDS011;54709;43.614;1.576;2022-09-29T01:52:47;5.90;;;1.10;;
67904;SDS011;54709;43.614;1.576;2022-09-29T01:55:20;4.57;;;1.17;;
67904;SDS011;54709;43.614;1.576;2022-09-29T01:57:54;3.17;;;0.90;;
67904;SDS011;54709;43.614;1.576;2022-09-29T02:00:22;4.55;;;0.85;;
67904;SDS011;54709;43.614;1.576;2022-09-29T02:05:37;4.50;;;0.90;;
67904;SDS011;54709;43.614;1.576;2022-09-29T02:08:25;7.35;;;1.08;;
67904;SDS011;54709;43.614;1.576;2022-09-29T02:10:53;2.28;;;0.80;;
67904;SDS011;54709;43.614;1.576;2022-09-29T02:13:19;3.13;;;0.63;;
67904;SDS011;54709;43.614;1.576;2022-09-29T02:15:46;4.00;;;0.93;;
67904;SDS011;54709;43.614;1.576;2022-09-29T02:18:17;3.78;;;0.82;;
67904;SDS011;54709;43.614;1.576;2022-09-29T02:20:46;3.97;;;1.00;;
67904;SDS011;54709;43.614;1.576;2022-09-29T02:23:12;3.55;;;0.77;;
67904;SDS011;54709;43.614;1.576;2022-09-29T02:25:37;3.92;;;0.70;;
67904;SDS011;54709;43.614;1.576;2022-09-29T02:28:03;1.20;;;0.60;;
67904;SDS011;54709;43.614;1.576;2022-09-29T02:30:29;2.28;;;0.70;;
67904;SDS011;54709;43.614;1.576;2022-09-29T02:32:54;1.98;;;0.70;;
67904;SDS011;54709;43.614;1.576;2022-09-29T02:35:19;1.70;;;0.70;;
67904;SDS011;54709;43.614;1.576;2022-09-29T02:40:35;3.22;;;0.60;;
67904;SDS011;54709;43.614;1.576;2022-09-29T02:51:52;0.98;;;0.45;;
67904;SDS011;54709;43.614;1.576;2022-09-29T02:59:59;1.30;;;0.40;;
67904;SDS011;54709;43.614;1.576;2022-09-29T03:02:35;3.80;;;0.68;;
67904;SDS011;54709;43.614;1.576;2022-09-29T03:05:02;1.63;;;0.50;;
67904;SDS011;54709;43.614;1.576;2022-09-29T03:07:33;2.55;;;0.60;;
67904;SDS011;54709;43.614;1.576;2022-09-29T03:10:00;1.77;;;0.68;;
67904;SDS011;54709;43.614;1.576;2022-09-29T03:12:25;2.65;;;0.80;;
67904;SDS011;54709;43.614;1.576;2022-09-29T03:14:51;2.53;;;0.80;;
67904;SDS011;54709;43.614;1.576;2022-09-29T03:17:16;1.38;;;0.80;;
67904;SDS011;54709;43.614;1.576;2022-09-29T03:19:41;4.57;;;0.68;;
67904;SDS011;54709;43.614;1.576;2022-09-29T03:22:07;0.93;;;0.50;;
67904;SDS011;54709;43.614;1.576;2022-09-29T03:24:32;2.20;;;0.73;;
67904;SDS011;54709;43.614;1.576;2022-09-29T03:26:57;2.10;;;0.60;;
67904;SDS011;54709;43.614;1.576;2022-09-29T03:29:23;1.48;;;0.60;;
67904;SDS011;54709;43.614;1.576;2022-09-29T03:31:48;2.17;;;0.63;;
67904;SDS011;54709;43.614;1.576;2022-09-29T03:34:14;2.50;;;0.60;;
67904;SDS011;54709;43.614;1.576;2022-09-29T03:36:39;2.72;;;0.60;;
67904;SDS011;54709;43.614;1.576;2022-09-29T03:39:06;1.42;;;0.50;;
67904;SDS011;54709;43.614;1.576;2022-09-29T03:41:31;3.75;;;0.60;;
67904;SDS011;54709;43.614;1.576;2022-09-29T03:43:57;4.43;;;0.60;;
67904;SDS011;54709;43.614;1.576;2022-09-29T03:46:22;2.85;;;0.70;;
67904;SDS011;54709;43.614;1.576;2022-09-29T03:48:47;3.08;;;0.50;;
67904;SDS011;54709;43.614;1.576;2022-09-29T03:51:13;2.50;;;0.52;;
67904;SDS011;54709;43.614;1.576;2022-09-29T03:53:38;3.13;;;0.80;;
67904;SDS011;54709;43.614;1.576;2022-09-29T03:56:04;1.35;;;0.50;;
67904;SDS011;54709;43.614;1.576;2022-09-29T03:58:29;2.17;;;0.60;;
67904;SDS011;54709;43.614;1.576;2022-09-29T04:00:55;2.45;;;0.70;;
67904;SDS011;54709;43.614;1.576;2022-09-29T04:03:20;1.52;;;0.60;;
67904;SDS011;54709;43.614;1.576;2022-09-29T04:05:46;1.42;;;0.57;;
67904;SDS011;54709;43.614;1.576;2022-09-29T04:08:13;1.05;;;0.47;;
67904;SDS011;54709;43.614;1.576;2022-09-29T04:10:39;2.42;;;0.57;;
67904;SDS011;54709;43.614;1.576;2022-09-29T04:13:05;1.83;;;0.50;;
67904;SDS011;54709;43.614;1.576;2022-09-29T04:15:31;1.40;;;0.40;;
67904;SDS011;54709;43.614;1.576;2022-09-29T04:17:56;2.28;;;0.52;;
67904;SDS011;54709;43.614;1.576;2022-09-29T04:20:22;2.42;;;0.40;;
67904;SDS011;54709;43.614;1.576;2022-09-29T04:22:47;0.88;;;0.40;;
67904;SDS011;54709;43.614;1.576;2022-09-29T04:25:12;3.72;;;0.30;;
67904;SDS011;54709;43.614;1.576;2022-09-29T04:27:38;1.38;;;0.40;;
67904;SDS011;54709;43.614;1.576;2022-09-29T04:30:04;0.65;;;0.40;;
67904;SDS011;54709;43.614;1.576;2022-09-29T04:32:30;1.55;;;0.52;;
67904;SDS011;54709;43.614;1.576;2022-09-29T04:34:55;3.13;;;0.40;;
67904;SDS011;54709;43.614;1.576;2022-09-29T04:37:20;4.45;;;0.45;;
67904;SDS011;54709;43.614;1.576;2022-09-29T04:39:46;2.30;;;0.30;;
67904;SDS011;54709;43.614;1.576;2022-09-29T04:42:11;1.10;;;0.50;;
67904;SDS011;54709;43.614;1.576;2022-09-29T04:44:36;0.73;;;0.40;;
67904;SDS011;54709;43.614;1.576;2022-09-29T04:47:02;1.85;;;0.50;;
67904;SDS011;54709;43.614;1.576;2022-09-29T04:49:27;2.03;;;0.50;;
67904;SDS011;54709;43.614;1.576;2022-09-29T04:51:53;0.75;;;0.30;;
67904;SDS011;54709;43.614;1.576;2022-09-29T04:54:18;2.15;;;0.38;;
67904;SDS011;54709;43.614;1.576;2022-09-29T04:56:46;2.75;;;0.70;;
67904;SDS011;54709;43.614;1.576;2022-09-29T04:59:12;1.50;;;0.50;;
67904;SDS011;54709;43.614;1.576;2022-09-29T05:01:38;1.15;;;0.50;;
67904;SDS011;54709;43.614;1.576;2022-09-29T05:04:03;1.33;;;0.43;;
67904;SDS011;54709;43.614;1.576;2022-09-29T05:06:29;0.60;;;0.22;;
67904;SDS011;54709;43.614;1.576;2022-09-29T05:08:54;3.40;;;0.35;;
67904;SDS011;54709;43.614;1.576;2022-09-29T05:11:19;0.75;;;0.38;;
67904;SDS011;54709;43.614;1.576;2022-09-29T05:13:47;1.63;;;0.30;;
67904;SDS011;54709;43.614;1.576;2022-09-29T05:16:12;2.13;;;0.50;;
67904;SDS011;54709;43.614;1.576;2022-09-29T05:18:38;2.50;;;0.50;;
67904;SDS011;54709;43.614;1.576;2022-09-29T05:21:07;2.42;;;0.50;;
67904;SDS011;54709;43.614;1.576;2022-09-29T05:23:33;1.17;;;0.40;;
67904;SDS011;54709;43.614;1.576;2022-09-29T05:26:02;1.25;;;0.30;;
67904;SDS011;54709;43.614;1.576;2022-09-29T05:28:28;1.48;;;0.40;;
67904;SDS011;54709;43.614;1.576;2022-09-29T05:30:54;1.17;;;0.30;;
67904;SDS011;54709;43.614;1.576;2022-09-29T05:33:19;2.13;;;0.43;;
67904;SDS011;54709;43.614;1.576;2022-09-29T05:35:44;0.90;;;0.40;;
67904;SDS011;54709;43.614;1.576;2022-09-29T05:38:10;2.05;;;0.43;;
67904;SDS011;54709;43.614;1.576;2022-09-29T05:40:35;0.88;;;0.45;;
67904;SDS011;54709;43.614;1.576;2022-09-29T05:43:01;0.85;;;0.50;;
67904;SDS011;54709;43.614;1.576;2022-09-29T05:45:26;0.43;;;0.40;;
67904;SDS011;54709;43.614;1.576;2022-09-29T05:47:52;0.60;;;0.30;;
67904;SDS011;54709;43.614;1.576;2022-09-29T05:50:18;0.40;;;0.40;;
67904;SDS011;54709;43.614;1.576;2022-09-29T05:52:44;2.25;;;0.50;;
67904;SDS011;54709;43.614;1.576;2022-09-29T05:55:13;1.08;;;0.32;;
67904;SDS011;54709;43.614;1.576;2022-09-29T05:57:39;2.25;;;0.38;;
67904;SDS011;54709;43.614;1.576;2022-09-29T06:00:04;5.00;;;0.40;;
67904;SDS011;54709;43.614;1.576;2022-09-29T06:02:30;1.42;;;0.40;;
67904;SDS011;54709;43.614;1.576;2022-09-29T06:04:56;1.15;;;0.50;;
67904;SDS011;54709;43.614;1.576;2022-09-29T06:07:22;1.60;;;0.47;;
67904;SDS011;54709;43.614;1.576;2022-09-29T06:09:47;1.35;;;0.40;;
67904;SDS011;54709;43.614;1.576;2022-09-29T06:12:13;1.58;;;0.50;;
67904;SDS011;54709;43.614;1.576;2022-09-29T06:14:38;2.30;;;0.50;;
67904;SDS011;54709;43.614;1.576;2022-09-29T06:17:03;0.85;;;0.40;;
67904;SDS011;54709;43.614;1.576;2022-09-29T06:19:29;0.38;;;0.38;;
67904;SDS011;54709;43.614;1.576;2022-09-29T06:21:54;2.47;;;0.52;;
67904;SDS011;54709;43.614;1.576;2022-09-29T06:24:20;0.70;;;0.40;;
67904;SDS011;54709;43.614;1.576;2022-09-29T06:26:45;1.10;;;0.52;;
67904;SDS011;54709;43.614;1.576;2022-09-29T06:29:11;1.13;;;0.50;;
67904;SDS011;54709;43.614;1.576;2022-09-29T06:31:36;1.17;;;0.65;;
67904;SDS011;54709;43.614;1.576;2022-09-29T06:34:03;1.63;;;0.50;;
67904;SDS011;54709;43.614;1.576;2022-09-29T06:36:36;2.50;;;0.50;;
67904;SDS011;54709;43.614;1.576;2022-09-29T06:39:22;1.05;;;0.60;;
67904;SDS011;54709;43.614;1.576;2022-09-29T06:41:47;2.42;;;0.60;;
67904;SDS011;54709;43.614;1.576;2022-09-29T06:44:16;3.05;;;0.55;;
67904;SDS011;54709;43.614;1.576;2022-09-29T06:46:42;2.33;;;0.57;;
67904;SDS011;54709;43.614;1.576;2022-09-29T06:49:07;0.60;;;0.40;;
67904;SDS011;54709;43.614;1.576;2022-09-29T06:51:34;1.25;;;0.57;;
67904;SDS011;54709;43.614;1.576;2022-09-29T06:53:59;1.30;;;0.40;;
67904;SDS011;54709;43.614;1.576;2022-09-29T06:56:25;1.17;;;0.40;;
67904;SDS011;54709;43.614;1.576;2022-09-29T06:58:50;1.25;;;0.30;;
67904;SDS011;54709;43.614;1.576;2022-09-29T07:01:15;0.73;;;0.30;;
67904;SDS011;54709;43.614;1.576;2022-09-29T07:03:41;2.05;;;0.50;;
67904;SDS011;54709;43.614;1.576;2022-09-29T07:06:07;1.08;;;0.40;;
67904;SDS011;54709;43.614;1.576;2022-09-29T07:08:33;0.60;;;0.30;;
67904;SDS011;54709;43.614;1.576;2022-09-29T07:11:00;0.45;;;0.35;;
67904;SDS011;54709;43.614;1.576;2022-09-29T07:13:30;2.78;;;0.40;;
67904;SDS011;54709;43.614;1.576;2022-09-29T07:15:55;0.90;;;0.45;;
67904;SDS011;54709;43.614;1.576;2022-09-29T07:18:21;1.33;;;0.40;;
67904;SDS011;54709;43.614;1.576;2022-09-29T07:20:46;1.77;;;0.40;;
67904;SDS011;54709;43.614;1.576;2022-09-29T07:23:12;2.50;;;0.43;;
67904;SDS011;54709;43.614;1.576;2022-09-29T07:25:38;0.57;;;0.28;;
67904;SDS011;54709;43.614;1.576;2022-09-29T07:28:03;1.65;;;0.40;;
67904;SDS011;54709;43.614;1.576;2022-09-29T07:30:29;2.75;;;0.60;;
67904;SDS011;54709;43.614;1.576;2022-09-29T07:32:55;2.22;;;0.40;;
67904;SDS011;54709;43.614;1.576;2022-09-29T07:35:21;3.40;;;0.50;;
67904;SDS011;54709;43.614;1.576;2022-09-29T07:37:52;0.60;;;0.40;;
67904;SDS011;54709;43.614;1.576;2022-09-29T07:40:22;0.70;;;0.40;;
67904;SDS011;54709;43.614;1.576;2022-09-29T07:42:47;2.03;;;0.40;;
67904;SDS011;54709;43.614;1.576;2022-09-29T07:45:13;0.63;;;0.22;;
67904;SDS011;54709;43.614;1.576;2022-09-29T07:47:39;1.23;;;0.45;;
67904;SDS011;54709;43.614;1.576;2022-09-29T07:50:05;0.95;;;0.30;;
67904;SDS011;54709;43.614;1.576;2022-09-29T07:52:31;0.50;;;0.40;;
67904;SDS011;54709;43.614;1.576;2022-09-29T07:54:56;0.68;;;0.30;;
67904;SDS011;54709;43.614;1.576;2022-09-29T07:57:21;2.85;;;0.40;;
67904;SDS011;54709;43.614;1.576;2022-09-29T07:59:47;2.97;;;0.60;;
67904;SDS011;54709;43.614;1.576;2022-09-29T08:02:12;2.35;;;0.60;;
67904;SDS011;54709;43.614;1.576;2022-09-29T08:04:37;0.73;;;0.50;;
67904;SDS011;54709;43.614;1.576;2022-09-29T08:07:03;0.90;;;0.40;;
67904;SDS011;54709;43.614;1.576;2022-09-29T08:09:28;1.98;;;0.40;;
67904;SDS011;54709;43.614;1.576;2022-09-29T08:11:54;1.50;;;0.50;;
67904;SDS011;54709;43.614;1.576;2022-09-29T08:14:19;0.60;;;0.40;;
67904;SDS011;54709;43.614;1.576;2022-09-29T08:16:44;1.60;;;0.45;;
67904;SDS011;54709;43.614;1.576;2022-09-29T08:19:11;1.08;;;0.50;;
67904;SDS011;54709;43.614;1.576;2022-09-29T08:21:36;0.68;;;0.40;;
67904;SDS011;54709;43.614;1.576;2022-09-29T08:24:03;1.42;;;0.52;;
67904;SDS011;54709;43.614;1.576;2022-09-29T08:26:30;2.50;;;0.60;;
67904;SDS011;54709;43.614;1.576;2022-09-29T08:29:03;1.17;;;0.55;;
67904;SDS011;54709;43.614;1.576;2022-09-29T08:31:28;1.05;;;0.43;;
67904;SDS011;54709;43.614;1.576;2022-09-29T08:33:55;2.83;;;0.80;;
67904;SDS011;54709;43.614;1.576;2022-09-29T08:36:22;1.75;;;0.55;;
67904;SDS011;54709;43.614;1.576;2022-09-29T08:38:52;1.85;;;0.50;;
67904;SDS011;54709;43.614;1.576;2022-09-29T08:47:00;1.65;;;0.43;;
67904;SDS011;54709;43.614;1.576;2022-09-29T08:49:31;2.70;;;0.60;;
67904;SDS011;54709;43.614;1.576;2022-09-29T08:52:05;5.30;;;0.55;;
67904;SDS011;54709;43.614;1.576;2022-09-29T08:54:35;1.83;;;0.60;;
67904;SDS011;54709;43.614;1.576;2022-09-29T08:57:03;2.50;;;0.73;;
67904;SDS011;54709;43.614;1.576;2022-09-29T08:59:30;3.10;;;0.57;;
67904;SDS011;54709;43.614;1.576;2022-09-29T09:01:59;4.28;;;0.50;;
67904;SDS011;54709;43.614;1.576;2022-09-29T09:21:03;2.60;;;0.60;;
67904;SDS011;54709;43.614;1.576;2022-09-29T09:26:08;4.32;;;0.70;;
67904;SDS011;54709;43.614;1.576;2022-09-29T09:36:35;1.55;;;0.65;;
67904;SDS011;54709;43.614;1.576;2022-09-29T09:41:29;4.30;;;0.70;;
67904;SDS011;54709;43.614;1.576;2022-09-29T09:44:04;4.28;;;0.80;;
67904;SDS011;54709;43.614;1.576;2022-09-29T09:46:36;1.50;;;0.50;;
67904;SDS011;54709;43.614;1.576;2022-09-29T09:49:12;1.90;;;0.40;;
67904;SDS011;54709;43.614;1.576;2022-09-29T09:54:32;3.35;;;0.50;;
67904;SDS011;54709;43.614;1.576;2022-09-29T09:57:10;1.88;;;0.70;;
67904;SDS011;54709;43.614;1.576;2022-09-29T10:00:07;8.57;;;0.63;;
67904;SDS011;54709;43.614;1.576;2022-09-29T10:02:37;0.75;;;0.50;;
67904;SDS011;54709;43.614;1.576;2022-09-29T10:05:17;1.55;;;0.40;;
67904;SDS011;54709;43.614;1.576;2022-09-29T10:07:44;0.93;;;0.50;;
67904;SDS011;54709;43.614;1.576;2022-09-29T10:10:14;1.98;;;0.50;;
67904;SDS011;54709;43.614;1.576;2022-09-29T10:12:44;2.17;;;0.55;;
67904;SDS011;54709;43.614;1.576;2022-09-29T10:15:16;1.35;;;0.43;;
67904;SDS011;54709;43.614;1.576;2022-09-29T10:17:45;2.65;;;0.50;;
67904;SDS011;54709;43.614;1.576;2022-09-29T10:20:12;1.27;;;0.80;;
67904;SDS011;54709;43.614;1.576;2022-09-29T10:22:37;1.25;;;0.50;;
67904;SDS011;54709;43.614;1.576;2022-09-29T10:27:44;2.33;;;0.60;;
67904;SDS011;54709;43.614;1.576;2022-09-29T10:30:17;1.33;;;0.65;;
67904;SDS011;54709;43.614;1.576;2022-09-29T10:32:45;2.03;;;0.50;;
67904;SDS011;54709;43.614;1.576;2022-09-29T10:35:25;1.77;;;0.50;;
67904;SDS011;54709;43.614;1.576;2022-09-29T10:38:04;1.98;;;0.68;;
67904;SDS011;54709;43.614;1.576;2022-09-29T10:40:31;2.13;;;0.40;;
67904;SDS011;54709;43.614;1.576;2022-09-29T10:42:57;1.77;;;0.50;;
67904;SDS011;54709;43.614;1.576;2022-09-29T10:45:26;5.20;;;0.70;;
67904;SDS011;54709;43.614;1.576;2022-09-29T10:50:21;2.17;;;0.63;;
67904;SDS011;54709;43.614;1.576;2022-09-29T10:53:23;1.35;;;0.40;;
67904;SDS011;54709;43.614;1.576;2022-09-29T10:55:56;3.35;;;0.68;;
67904;SDS011;54709;43.614;1.576;2022-09-29T10:58:35;2.17;;;0.60;;
67904;SDS011;54709;43.614;1.576;2022-09-29T11:01:08;3.17;;;0.77;;
67904;SDS011;54709;43.614;1.576;2022-09-29T11:03:36;1.33;;;0.60;;
67904;SDS011;54709;43.614;1.576;2022-09-29T11:06:05;1.08;;;0.70;;
